createdAt,value
2018-09-05T00:01:33.454Z,13.87
2018-09-05T00:04:08.886Z,13.87
2018-09-05T00:06:44.104Z,13.50
2018-09-05T00:09:33.021Z,13.63
2018-09-05T00:12:08.221Z,12.50
2018-09-05T00:14:43.324Z,13.50
2018-09-05T00:17:18.710Z,13.90
2018-09-05T00:19:53.686Z,13.33
2018-09-05T00:22:29.249Z,13.63
2018-09-05T00:25:11.140Z,13.33
2018-09-05T00:27:46.183Z,12.63
2018-09-05T00:30:21.515Z,13.70
2018-09-05T00:32:57.996Z,13.13
2018-09-05T00:35:33.506Z,13.73
2018-09-05T00:38:08.686Z,14.03
2018-09-05T00:40:49.275Z,13.63
2018-09-05T00:43:24.344Z,13.63
2018-09-05T00:45:59.614Z,13.63
2018-09-05T00:48:38.690Z,13.07
2018-09-05T00:51:14.105Z,13.00
2018-09-05T00:53:49.148Z,12.13
2018-09-05T00:56:24.713Z,13.23
2018-09-05T00:58:59.785Z,13.20
2018-09-05T01:01:35.153Z,12.90
2018-09-05T01:04:11.565Z,13.27
2018-09-05T01:06:46.700Z,13.03
2018-09-05T01:09:21.913Z,13.10
2018-09-05T01:12:02.794Z,12.40
2018-09-05T01:14:38.034Z,12.60
2018-09-05T01:17:13.314Z,12.57
2018-09-05T01:19:48.722Z,13.03
2018-09-05T01:22:23.940Z,12.73
2018-09-05T01:24:59.237Z,12.00
2018-09-05T01:27:34.727Z,12.50
2018-09-05T01:30:09.792Z,12.80
2018-09-05T01:32:44.917Z,11.53
2018-09-05T01:35:25.508Z,11.80
2018-09-05T01:38:00.710Z,13.20
2018-09-05T01:40:35.999Z,11.70
2018-09-05T01:43:13.621Z,12.77
2018-09-05T01:45:48.624Z,12.20
2018-09-05T01:48:23.706Z,11.20
2018-09-05T01:50:59.687Z,11.90
2018-09-05T01:53:34.837Z,11.67
2018-09-05T01:56:10.281Z,12.03
2018-09-05T01:58:47.027Z,11.90
2018-09-05T02:01:22.337Z,12.13
2018-09-05T02:03:57.657Z,11.77
2018-09-05T02:06:49.181Z,11.13
2018-09-05T02:09:24.418Z,10.67
2018-09-05T02:11:59.659Z,11.00
2018-09-05T02:14:34.783Z,12.60
2018-09-05T02:17:22.003Z,11.43
2018-09-05T02:19:57.104Z,11.80
2018-09-05T02:22:32.336Z,12.37
2018-09-05T02:25:09.392Z,11.97
2018-09-05T02:27:44.798Z,12.03
2018-09-05T02:30:19.794Z,12.50
2018-09-05T02:32:58.629Z,12.07
2018-09-05T02:35:33.810Z,10.93
2018-09-05T02:38:08.970Z,11.53
2018-09-05T02:40:44.623Z,11.13
2018-09-05T02:43:25.111Z,11.67
2018-09-05T02:46:00.115Z,12.13
2018-09-05T02:48:43.973Z,12.43
2018-09-05T02:51:19.386Z,12.63
2018-09-05T02:53:54.555Z,12.73
2018-09-05T02:56:29.735Z,12.20
2018-09-05T02:59:05.083Z,13.10
2018-09-05T03:01:40.200Z,12.73
2018-09-05T03:04:15.496Z,11.40
2018-09-05T03:06:50.950Z,12.03
2018-09-05T03:09:26.790Z,11.63
2018-09-05T03:12:01.749Z,11.17
2018-09-05T03:14:36.936Z,11.67
2018-09-05T03:17:12.630Z,11.23
2018-09-05T03:19:47.742Z,11.73
2018-09-05T03:22:22.734Z,10.97
2018-09-05T03:24:58.359Z,11.10
2018-09-05T03:27:33.692Z,11.90
2018-09-05T03:30:08.818Z,12.03
2018-09-05T03:32:44.342Z,11.97
2018-09-05T03:35:19.369Z,11.83
2018-09-05T03:37:54.620Z,11.87
2018-09-05T03:40:30.022Z,11.93
2018-09-05T03:43:05.430Z,13.13
2018-09-05T03:45:42.898Z,12.73
2018-09-05T03:48:18.123Z,13.77
2018-09-05T03:50:56.244Z,12.30
2018-09-05T03:53:38.509Z,11.57
2018-09-05T03:56:13.775Z,12.23
2018-09-05T03:58:48.904Z,13.00
2018-09-05T04:01:31.764Z,12.40
2018-09-05T04:04:06.951Z,12.90
2018-09-05T04:06:42.311Z,12.37
2018-09-05T04:09:22.824Z,11.93
2018-09-05T04:11:58.125Z,12.47
2018-09-05T04:14:33.502Z,12.67
2018-09-05T04:17:22.948Z,12.20
2018-09-05T04:19:58.313Z,11.53
2018-09-05T04:22:33.302Z,11.87
2018-09-05T04:25:09.166Z,11.93
2018-09-05T04:27:44.393Z,12.47
2018-09-05T04:30:19.770Z,12.23
2018-09-05T04:32:54.884Z,12.43
2018-09-05T04:35:32.748Z,12.57
2018-09-05T04:38:07.930Z,13.03
2018-09-05T04:40:46.295Z,12.73
2018-09-05T04:43:24.974Z,12.23
2018-09-05T04:46:00.554Z,12.37
2018-09-05T04:48:36.069Z,11.57
2018-09-05T04:51:13.764Z,12.23
2018-09-05T04:53:48.985Z,12.10
2018-09-05T04:56:26.724Z,12.83
2018-09-05T04:59:08.155Z,12.03
2018-09-05T05:01:45.654Z,11.90
2018-09-05T05:04:21.025Z,12.83
2018-09-05T05:06:56.200Z,11.57
2018-09-05T05:09:31.659Z,12.20
2018-09-05T05:12:10.592Z,11.73
2018-09-05T05:14:48.070Z,11.50
2018-09-05T05:17:23.363Z,12.57
2018-09-05T05:19:58.759Z,12.37
2018-09-05T05:22:35.995Z,11.93
2018-09-05T05:25:11.125Z,11.40
2018-09-05T05:27:48.782Z,11.97
2018-09-05T05:30:32.616Z,11.17
2018-09-05T05:33:11.686Z,11.63
2018-09-05T05:35:51.762Z,12.63
2018-09-05T05:38:30.031Z,12.20
2018-09-05T05:41:07.986Z,12.27
2018-09-05T05:43:43.285Z,11.93
2018-09-05T05:46:20.426Z,12.97
2018-09-05T05:48:55.588Z,11.80
2018-09-05T05:51:33.790Z,12.13
2018-09-05T05:54:16.354Z,11.43
2018-09-05T05:56:53.589Z,12.17
2018-09-05T05:59:31.848Z,11.77
2018-09-05T06:02:07.551Z,11.40
2018-09-05T06:04:42.783Z,11.60
2018-09-05T06:07:17.965Z,11.53
2018-09-05T06:09:58.125Z,12.63
2018-09-05T06:12:35.146Z,11.50
2018-09-05T06:15:13.006Z,11.73
2018-09-05T06:17:49.219Z,12.53
2018-09-05T06:20:24.243Z,12.70
2018-09-05T06:22:59.402Z,11.57
2018-09-05T06:25:40.852Z,12.67
2018-09-05T06:28:18.009Z,13.60
2018-09-05T06:33:36.701Z,13.20
2018-09-05T06:36:12.090Z,13.33
2018-09-05T06:38:50.247Z,12.67
2018-09-05T06:41:25.560Z,11.83
2018-09-05T06:44:00.841Z,12.60
2018-09-05T06:46:42.112Z,13.03
2018-09-05T06:49:19.934Z,12.87
2018-09-05T06:51:59.480Z,12.83
2018-09-05T06:54:35.205Z,13.43
2018-09-05T06:57:17.229Z,13.33
2018-09-05T06:59:52.484Z,12.97
2018-09-05T07:02:36.962Z,12.77
2018-09-05T07:05:12.464Z,12.17
2018-09-05T07:07:47.799Z,12.97
2018-09-05T07:10:25.859Z,12.33
2018-09-05T07:13:03.389Z,13.00
2018-09-05T07:15:41.245Z,12.07
2018-09-05T07:18:24.162Z,12.30
2018-09-05T07:21:06.223Z,11.87
2018-09-05T07:23:37.303Z,11.13
2018-09-05T07:26:22.071Z,11.57
2018-09-05T07:28:59.714Z,11.50
2018-09-05T07:31:34.846Z,12.20
2018-09-05T07:34:16.146Z,12.90
2018-09-05T07:36:51.559Z,12.93
2018-09-05T07:39:26.893Z,12.33
2018-09-05T07:42:13.978Z,12.00
2018-09-05T07:44:49.422Z,13.47
2018-09-05T07:47:25.985Z,13.17
2018-09-05T07:50:08.532Z,13.03
2018-09-05T07:52:47.613Z,12.80
2018-09-05T07:55:25.002Z,12.73
2018-09-05T07:58:00.888Z,12.97
2018-09-05T08:00:36.138Z,13.43
2018-09-05T08:03:20.765Z,13.77
2018-09-05T08:05:56.006Z,12.87
2018-09-05T08:08:31.357Z,13.37
2018-09-05T08:11:13.617Z,12.47
2018-09-05T08:13:52.786Z,12.10
2018-09-05T08:16:30.145Z,12.97
2018-09-05T08:19:13.639Z,12.70
2018-09-05T08:21:52.660Z,13.00
2018-09-05T08:24:31.148Z,12.77
2018-09-05T08:27:12.334Z,12.93
2018-09-05T08:29:52.902Z,12.93
2018-09-05T08:32:31.076Z,13.10
2018-09-05T08:35:11.474Z,12.57
2018-09-05T08:37:51.342Z,12.67
2018-09-05T08:43:33.936Z,13.07
2018-09-05T08:53:00.220Z,12.40
2018-09-05T08:55:40.332Z,12.23
2018-09-05T08:58:21.911Z,12.73
2018-09-05T09:01:02.021Z,12.63
2018-09-05T09:03:38.559Z,12.47
2018-09-05T09:06:19.268Z,12.67
2018-09-05T09:09:01.319Z,12.97
2018-09-05T09:11:40.216Z,12.23
2018-09-05T09:14:21.471Z,12.77
2018-09-05T09:17:05.095Z,12.40
2018-09-05T09:19:56.704Z,12.30
2018-09-05T09:22:47.715Z,11.87
2018-09-05T09:25:26.426Z,11.20
2018-09-05T09:28:09.254Z,11.90
2018-09-05T09:31:04.882Z,11.90
2018-09-05T09:33:47.428Z,11.27
2018-09-05T09:42:20.294Z,10.57
2018-09-05T09:45:10.558Z,11.10
2018-09-05T09:47:51.204Z,11.20
2018-09-05T09:53:26.351Z,9.43
2018-09-05T09:56:10.231Z,7.43
2018-09-05T09:58:49.752Z,7.53
2018-09-05T10:01:35.842Z,6.80
2018-09-05T10:17:09.139Z,7.97
2018-09-05T10:20:04.294Z,6.50
2018-09-05T10:22:42.551Z,6.30
2018-09-05T10:28:08.346Z,5.90
2018-09-05T10:30:54.310Z,6.63
2018-09-05T10:33:29.787Z,6.73
2018-09-05T10:36:09.921Z,6.67
2018-09-05T10:38:50.140Z,5.60
2018-09-05T10:41:28.390Z,5.83
2018-09-05T10:44:09.959Z,6.77
2018-09-05T10:46:50.679Z,6.80
2018-09-05T10:49:38.809Z,5.83
2018-09-05T10:52:14.417Z,6.10
2018-09-05T10:55:09.478Z,5.70
2018-09-05T10:57:53.072Z,5.30
2018-09-05T11:00:32.062Z,6.13
2018-09-05T11:03:23.744Z,5.87
2018-09-05T11:06:06.052Z,6.30
2018-09-05T11:08:55.592Z,6.60
2018-09-05T11:11:34.007Z,6.03
2018-09-05T11:14:12.810Z,5.73
2018-09-05T11:16:52.355Z,5.63
2018-09-05T11:19:32.900Z,5.90
2018-09-05T11:22:17.405Z,6.13
2018-09-05T11:24:56.091Z,6.43
2018-09-05T11:27:34.618Z,6.57
2018-09-05T11:30:21.849Z,6.90
2018-09-05T11:32:57.441Z,6.50
2018-09-05T11:35:35.575Z,6.60
2018-09-05T11:38:19.090Z,6.30
2018-09-05T11:40:54.820Z,6.67
2018-09-05T11:43:34.502Z,6.50
2018-09-05T11:46:14.077Z,7.23
2018-09-05T11:48:52.664Z,7.10
2018-09-05T11:51:30.801Z,7.60
2018-09-05T11:54:16.415Z,7.33
2018-09-05T11:57:03.543Z,6.80
2018-09-05T11:59:39.109Z,6.93
2018-09-05T12:02:24.457Z,6.70
2018-09-05T12:05:00.223Z,7.30
2018-09-05T12:07:39.662Z,6.80
2018-09-05T12:10:20.633Z,7.33
2018-09-05T12:13:00.359Z,7.77
2018-09-05T12:15:44.033Z,7.40
2018-09-05T12:18:25.430Z,7.60
2018-09-05T12:21:02.903Z,7.30
2018-09-05T12:23:45.130Z,7.67
2018-09-05T12:26:22.282Z,7.67
2018-09-05T12:29:01.032Z,6.97
2018-09-05T12:31:43.729Z,7.83
2018-09-05T12:34:22.293Z,7.20
2018-09-05T12:37:00.704Z,7.00
2018-09-05T12:39:41.046Z,6.90
2018-09-05T12:42:20.731Z,7.00
2018-09-05T12:45:04.094Z,7.30
2018-09-05T12:47:43.146Z,7.13
2018-09-05T12:50:22.794Z,6.67
2018-09-05T12:53:02.858Z,7.33
2018-09-05T12:55:40.408Z,7.27
2018-09-05T12:58:24.157Z,7.63
2018-09-05T13:01:04.575Z,7.77
2018-09-05T13:03:47.201Z,6.80
2018-09-05T13:06:26.451Z,6.50
2018-09-05T13:09:10.588Z,6.90
2018-09-05T13:11:46.278Z,6.40
2018-09-05T13:14:27.454Z,7.63
2018-09-05T13:17:07.788Z,6.57
2018-09-05T13:19:46.399Z,6.93
2018-09-05T13:22:29.425Z,7.00
2018-09-05T13:25:07.916Z,6.43
2018-09-05T13:27:46.281Z,6.53
2018-09-05T13:30:24.730Z,6.60
2018-09-05T13:33:01.014Z,6.77
2018-09-05T13:35:36.573Z,6.83
2018-09-05T13:38:12.051Z,7.10
2018-09-05T13:40:52.403Z,6.10
2018-09-05T13:43:30.973Z,6.40
2018-09-05T13:46:13.960Z,6.63
2018-09-05T13:48:51.554Z,6.20
2018-09-05T13:51:34.967Z,5.73
2018-09-05T13:54:12.180Z,6.23
2018-09-05T13:56:50.137Z,5.57
2018-09-05T13:59:27.517Z,5.50
2018-09-05T14:02:02.837Z,5.50
2018-09-05T14:04:38.216Z,5.67
2018-09-05T14:07:13.650Z,5.80
2018-09-05T14:09:51.126Z,5.60
2018-09-05T14:12:26.539Z,5.13
2018-09-05T14:15:12.284Z,5.13
2018-09-05T14:17:52.612Z,5.97
2018-09-05T14:20:30.709Z,5.63
2018-09-05T14:23:19.017Z,5.13
2018-09-05T14:25:56.214Z,5.40
2018-09-05T14:28:44.143Z,5.80
2018-09-05T14:31:19.762Z,5.50
2018-09-05T14:33:55.171Z,5.50
2018-09-05T14:36:34.834Z,5.37
2018-09-05T14:39:14.366Z,5.03
2018-09-05T14:41:49.870Z,5.30
2018-09-05T14:44:25.029Z,6.20
2018-09-05T14:47:00.395Z,5.30
2018-09-05T14:49:37.001Z,5.50
2018-09-05T14:52:17.209Z,5.27
2018-09-05T14:55:04.846Z,5.60
2018-09-05T14:57:40.174Z,5.67
2018-09-05T15:00:17.978Z,5.40
2018-09-05T15:02:57.309Z,5.07
2018-09-05T15:05:35.505Z,6.37
2018-09-05T15:08:10.696Z,5.30
2018-09-05T15:10:47.843Z,5.93
2018-09-05T15:13:22.979Z,5.30
2018-09-05T15:16:00.482Z,5.23
2018-09-05T15:18:38.035Z,5.23
2018-09-05T15:21:13.417Z,5.40
2018-09-05T15:23:49.974Z,5.40
2018-09-05T15:26:25.210Z,4.90
2018-09-05T15:29:03.105Z,5.50
2018-09-05T15:31:44.321Z,5.43
2018-09-05T15:34:23.178Z,4.93
2018-09-05T15:37:00.956Z,5.40
2018-09-05T15:39:36.263Z,5.37
2018-09-05T15:42:11.543Z,5.60
2018-09-05T15:44:46.903Z,5.40
2018-09-05T15:47:28.035Z,5.40
2018-09-05T15:50:06.602Z,5.20
2018-09-05T15:52:44.468Z,4.60
2018-09-05T15:55:19.826Z,5.23
2018-09-05T15:57:55.094Z,5.60
2018-09-05T16:00:31.766Z,6.00
2018-09-05T16:03:06.942Z,4.83
2018-09-05T16:05:44.658Z,5.07
2018-09-05T16:08:20.393Z,4.73
2018-09-05T16:10:55.558Z,4.87
2018-09-05T16:13:30.907Z,4.70
2018-09-05T16:16:08.205Z,5.43
2018-09-05T16:18:45.877Z,5.37
2018-09-05T16:21:21.459Z,5.07
2018-09-05T16:23:56.893Z,5.17
2018-09-05T16:26:32.054Z,4.63
2018-09-05T16:29:11.412Z,5.00
2018-09-05T16:31:48.548Z,5.07
2018-09-05T16:34:28.858Z,5.23
2018-09-05T16:37:06.644Z,5.60
2018-09-05T16:39:41.931Z,5.00
2018-09-05T16:42:19.068Z,5.10
2018-09-05T16:44:54.542Z,5.10
2018-09-05T16:47:33.506Z,5.20
2018-09-05T16:50:10.933Z,4.67
2018-09-05T16:52:46.253Z,4.93
2018-09-05T16:55:22.990Z,5.13
2018-09-05T16:57:58.272Z,5.13
2018-09-05T17:00:34.324Z,4.87
2018-09-05T17:03:15.387Z,5.10
2018-09-05T17:05:52.764Z,5.47
2018-09-05T17:08:28.111Z,5.07
2018-09-05T17:11:03.835Z,4.90
2018-09-05T17:13:38.933Z,4.70
2018-09-05T17:16:17.722Z,5.00
2018-09-05T17:18:58.738Z,4.97
2018-09-05T17:21:35.868Z,5.27
2018-09-05T17:24:11.138Z,5.17
2018-09-05T17:26:46.770Z,5.20
2018-09-05T17:29:21.983Z,4.63
2018-09-05T17:31:57.232Z,5.30
2018-09-05T17:34:36.296Z,5.80
2018-09-05T17:37:11.765Z,5.50
2018-09-05T17:39:46.974Z,5.73
2018-09-05T17:42:26.859Z,5.43
2018-09-05T17:45:02.322Z,5.30
2018-09-05T17:47:40.997Z,5.80
2018-09-05T17:50:21.784Z,5.30
2018-09-05T17:52:59.091Z,5.90
2018-09-05T17:55:36.022Z,5.70
2018-09-05T17:58:18.396Z,5.33
2018-09-05T18:00:53.836Z,5.70
2018-09-05T18:03:29.526Z,5.50
2018-09-05T18:06:05.042Z,5.70
2018-09-05T18:08:41.410Z,6.07
2018-09-05T18:11:24.085Z,6.97
2018-09-05T18:14:05.685Z,6.50
2018-09-05T18:16:42.307Z,6.23
2018-09-05T18:19:26.446Z,6.27
2018-09-05T18:22:03.152Z,6.47
2018-09-05T18:24:41.421Z,6.23
2018-09-05T18:27:17.984Z,6.60
2018-09-05T18:29:53.373Z,5.93
2018-09-05T18:32:29.237Z,6.90
2018-09-05T18:35:10.477Z,6.50
2018-09-05T18:37:47.766Z,6.07
2018-09-05T18:40:25.766Z,6.17
2018-09-05T18:43:09.286Z,5.97
2018-09-05T18:45:45.807Z,7.13
2018-09-05T18:48:30.978Z,7.00
2018-09-05T18:51:06.761Z,6.93
2018-09-05T18:53:46.105Z,7.10
2018-09-05T18:56:27.076Z,6.50
2018-09-05T18:59:08.068Z,7.20
2018-09-05T19:01:47.075Z,6.63
2018-09-05T19:04:26.668Z,6.80
2018-09-05T19:07:05.007Z,6.40
2018-09-05T19:09:40.701Z,6.67
2018-09-05T19:12:18.860Z,6.53
2018-09-05T19:14:55.304Z,6.97
2018-09-05T19:17:30.921Z,6.47
2018-09-05T19:20:13.205Z,7.07
2018-09-05T19:22:51.513Z,6.50
2018-09-05T19:25:30.452Z,6.73
2018-09-05T19:28:10.147Z,7.20
2018-09-05T19:30:48.817Z,6.77
2018-09-05T19:33:25.339Z,6.63
2018-09-05T19:36:05.882Z,6.80
2018-09-05T19:38:41.643Z,6.57
2018-09-05T19:41:17.365Z,6.63
2018-09-05T19:43:57.916Z,6.93
2018-09-05T19:46:34.670Z,7.27
2018-09-05T19:49:10.445Z,6.90
2018-09-05T19:51:45.718Z,6.53
2018-09-05T19:54:21.851Z,6.70
2018-09-05T19:56:59.025Z,6.57
2018-09-05T19:59:36.413Z,6.30
2018-09-05T20:02:11.972Z,6.97
2018-09-05T20:04:48.810Z,6.60
2018-09-05T20:07:24.049Z,6.57
2018-09-05T20:09:59.545Z,7.07
2018-09-05T20:12:34.942Z,6.27
2018-09-05T20:15:10.298Z,6.60
2018-09-05T20:17:45.783Z,7.20
2018-09-05T20:20:23.381Z,6.30
2018-09-05T20:22:59.467Z,7.03
2018-09-05T20:25:35.025Z,6.50
2018-09-05T20:28:10.629Z,6.77
2018-09-05T20:30:45.776Z,6.90
2018-09-05T20:33:21.158Z,7.30
2018-09-05T20:36:05.500Z,6.87
2018-09-05T20:38:40.728Z,6.73
2018-09-05T20:41:15.963Z,7.30
2018-09-05T20:43:51.461Z,8.10
2018-09-05T20:46:26.566Z,7.30
2018-09-05T20:49:01.679Z,7.07
2018-09-05T20:51:37.349Z,7.00
2018-09-05T20:54:12.652Z,7.30
2018-09-05T20:56:47.874Z,6.60
2018-09-05T20:59:25.252Z,6.40
2018-09-05T21:02:00.595Z,7.13
2018-09-05T21:04:35.925Z,6.73
2018-09-05T21:07:11.350Z,6.90
2018-09-05T21:09:46.561Z,6.27
2018-09-05T21:12:21.773Z,6.77
2018-09-05T21:15:05.692Z,6.83
2018-09-05T21:17:40.952Z,6.47
2018-09-05T21:20:16.076Z,6.97
2018-09-05T21:22:51.127Z,6.57
2018-09-05T21:25:26.228Z,6.27
2018-09-05T21:28:01.316Z,7.60
2018-09-05T21:30:36.413Z,6.63
2018-09-05T21:33:11.488Z,6.47
2018-09-05T21:35:46.885Z,6.47
2018-09-05T21:38:22.052Z,6.77
2018-09-05T21:40:57.294Z,6.60
2018-09-05T21:43:32.409Z,6.67
2018-09-05T21:46:07.456Z,6.50
2018-09-05T21:48:50.168Z,7.37
2018-09-05T21:51:25.594Z,6.80
2018-09-05T21:54:00.774Z,7.00
2018-09-05T21:56:35.748Z,6.93
2018-09-05T21:59:12.172Z,6.83
2018-09-05T22:01:47.384Z,7.13
2018-09-05T22:04:22.691Z,7.43
2018-09-05T22:06:57.748Z,8.43
2018-09-05T22:09:33.269Z,8.37
2018-09-05T22:12:11.118Z,7.60
2018-09-05T22:14:47.378Z,8.50
2018-09-05T22:17:22.554Z,8.03
2018-09-05T22:19:57.919Z,7.57
2018-09-05T22:22:33.093Z,8.00
2018-09-05T22:25:08.490Z,7.97
2018-09-05T22:27:43.878Z,8.03
2018-09-05T22:30:19.037Z,7.97
2018-09-05T22:32:54.294Z,7.63
2018-09-05T22:35:30.609Z,8.40
2018-09-05T22:38:05.873Z,7.37
2018-09-05T22:40:47.031Z,7.70
2018-09-05T22:43:34.397Z,7.93
2018-09-05T22:46:20.776Z,6.87
2018-09-05T22:49:07.240Z,7.40
2018-09-05T22:52:13.423Z,7.67
2018-09-05T22:55:36.384Z,7.30
2018-09-05T23:00:29.927Z,7.53
2018-09-05T23:04:57.017Z,7.40
2018-09-05T23:08:41.354Z,6.97
2018-09-05T23:11:28.081Z,6.80
2018-09-05T23:14:17.440Z,7.23
2018-09-05T23:17:08.133Z,6.80
2018-09-05T23:19:56.582Z,7.83
2018-09-05T23:22:43.856Z,7.53
2018-09-05T23:25:18.969Z,7.90
2018-09-05T23:27:54.446Z,6.90
2018-09-05T23:30:29.788Z,7.07
2018-09-05T23:33:12.367Z,7.70
2018-09-05T23:35:47.192Z,6.57
2018-09-05T23:38:22.416Z,7.23
2018-09-05T23:41:00.982Z,7.23
2018-09-05T23:43:36.110Z,7.00
2018-09-05T23:46:11.645Z,7.63
2018-09-05T23:48:47.228Z,7.47
2018-09-05T23:51:22.321Z,7.20
2018-09-05T23:53:58.331Z,7.67
2018-09-05T23:56:33.395Z,7.50
2018-09-05T23:59:08.574Z,7.20
